Time;durP1;ratioP1;P1;durP2;ratioP2;P2;SDS_P1;SDS_P2;PMS_P1;PMS_P2;Temp;Humidity;BMP_temperature;BMP_pressure;BME280_temperature;BME280_humidity;BME280_pressure;Samples;Min_cycle;Max_cycle;Signal;HPM_P1;HPM_P2
2022/08/30 00:03:05;;;;;;;;;;;25.00;99.90;;;;;;5066007;28;19967;-70
2022/08/30 00:05:31;;;;;;;;;;;24.80;99.90;;;;;;5067928;28;19913;-69
2022/08/30 00:07:58;;;;;;;;;;;24.70;99.90;;;;;;5063049;28;19919;-70
2022/08/30 00:10:24;;;;;;;;;;;25.00;99.90;;;;;;5062285;28;19936;-70
2022/08/30 00:12:49;;;;;;;;;;;25.00;99.90;;;;;;5063232;28;20402;-69
2022/08/30 00:15:16;;;;;;;;;;;25.20;99.90;;;;;;5044086;28;19958;-69
2022/08/30 00:17:42;;;;;;;;;;;25.40;99.90;;;;;;5044427;28;19912;-69
2022/08/30 00:20:10;;;;;;;;;;;25.30;99.90;;;;;;5061498;28;19912;-70
2022/08/30 00:22:36;;;;;;;;;;;25.30;99.90;;;;;;5061039;28;19963;-69
2022/08/30 00:25:02;;;;;;;;;;;25.30;99.90;;;;;;5073615;28;19924;-70
2022/08/30 00:27:29;;;;;;;;;;;25.30;99.90;;;;;;5068594;28;19912;-70
2022/08/30 00:29:55;;;;;;;;;;;25.30;99.90;;;;;;5061133;28;20314;-70
2022/08/30 00:32:21;;;;;;;;;;;25.40;99.90;;;;;;5071116;28;19958;-69
2022/08/30 00:34:48;;;;;;;;;;;25.30;99.90;;;;;;5062607;28;20003;-70
2022/08/30 00:37:13;;;;;;;;;;;25.20;99.90;;;;;;5061488;28;19908;-69
2022/08/30 00:39:39;;;;;;;;;;;25.20;99.90;;;;;;5062726;28;20461;-70
2022/08/30 00:42:05;;;;;;;;;;;25.20;99.90;;;;;;5062263;28;19912;-68
2022/08/30 00:44:31;;;;;;;;;;;25.10;99.90;;;;;;5061377;28;19931;-70
2022/08/30 00:46:57;;;;;;;;;;;25.10;99.90;;;;;;5063167;28;20374;-71
2022/08/30 00:49:23;;;;;;;;;;;25.10;99.90;;;;;;5062111;28;20151;-69
2022/08/30 00:51:49;;;;;;;;;;;25.20;99.90;;;;;;5050410;28;19908;-70
2022/08/30 00:54:15;;;;;;;;;;;25.10;99.90;;;;;;5072384;28;20166;-70
2022/08/30 00:56:41;;;;;;;;;;;25.20;99.90;;;;;;5050194;28;19912;-70
2022/08/30 00:59:07;;;;;;;;;;;25.10;99.90;;;;;;5063392;28;20211;-69
2022/08/30 01:01:34;;;;;;;;;;;25.10;99.90;;;;;;5071218;28;20310;-69
2022/08/30 01:04:01;;;;;;;;;;;25.10;99.90;;;;;;5071133;28;19905;-70
2022/08/30 01:06:27;;;;;;;;;;;25.00;99.90;;;;;;5070881;28;19938;-69
2022/08/30 01:08:52;;;;;;;;;;;24.80;99.90;;;;;;5060325;28;19916;-69
2022/08/30 01:11:20;;;;;;;;;;;24.50;99.90;;;;;;5062712;28;19971;-70
2022/08/30 01:13:47;;;;;;;;;;;24.20;99.90;;;;;;5062035;28;19917;-70
2022/08/30 01:16:13;;;;;;;;;;;24.00;99.90;;;;;;5045963;28;19908;-70
2022/08/30 01:18:39;;;;;;;;;;;23.80;99.90;;;;;;5062136;28;20289;-69
2022/08/30 01:21:06;;;;;;;;;;;23.70;99.90;;;;;;5061943;28;19908;-68
2022/08/30 01:23:32;;;;;;;;;;;23.70;99.90;;;;;;5062867;28;19988;-71
2022/08/30 01:25:59;;;;;;;;;;;23.60;99.90;;;;;;5062546;28;19999;-69
2022/08/30 01:28:25;;;;;;;;;;;23.60;99.90;;;;;;5061749;28;19912;-70
2022/08/30 01:30:51;;;;;;;;;;;23.50;99.90;;;;;;5044283;28;19915;-72
2022/08/30 01:33:18;;;;;;;;;;;23.40;99.90;;;;;;5066855;28;20222;-70
2022/08/30 01:35:52;;;;;;;;;;;23.50;99.90;;;;;;5071343;28;19979;-72
2022/08/30 01:38:20;;;;;;;;;;;23.60;99.90;;;;;;5078753;28;19912;-72
2022/08/30 01:40:46;;;;;;;;;;;23.70;99.90;;;;;;5079772;28;19908;-71
2022/08/30 01:43:12;;;;;;;;;;;23.80;99.90;;;;;;5076679;28;19943;-73
2022/08/30 01:45:38;;;;;;;;;;;24.00;99.90;;;;;;5076060;28;20275;-71
2022/08/30 01:48:03;;;;;;;;;;;24.20;99.90;;;;;;5078032;28;19935;-71
2022/08/30 01:50:29;;;;;;;;;;;24.30;99.90;;;;;;5074233;28;19916;-71
2022/08/30 01:52:55;;;;;;;;;;;24.30;99.90;;;;;;5066567;28;20007;-71
2022/08/30 01:55:21;;;;;;;;;;;24.30;99.90;;;;;;5066209;28;20412;-72
2022/08/30 01:57:48;;;;;;;;;;;24.30;99.90;;;;;;5049922;28;20392;-71
2022/08/30 02:00:15;;;;;;;;;;;24.40;99.90;;;;;;5066703;28;19919;-71
2022/08/30 02:02:42;;;;;;;;;;;24.40;99.90;;;;;;5066092;28;20019;-71
2022/08/30 02:05:08;;;;;;;;;;;24.40;99.90;;;;;;5048167;28;19915;-71
2022/08/30 02:07:34;;;;;;;;;;;24.20;99.90;;;;;;5065174;28;19999;-71
2022/08/30 02:09:59;;;;;;;;;;;24.10;99.90;;;;;;5063734;28;20410;-72
2022/08/30 02:12:25;;;;;;;;;;;24.10;99.90;;;;;;5065900;28;19911;-71
2022/08/30 02:14:51;;;;;;;;;;;24.00;99.90;;;;;;5066076;28;19908;-72
2022/08/30 02:17:18;;;;;;;;;;;24.00;99.90;;;;;;5064351;28;19966;-72
2022/08/30 02:19:44;;;;;;;;;;;23.90;99.90;;;;;;5064268;28;20402;-72
2022/08/30 02:22:10;;;;;;;;;;;23.80;99.90;;;;;;5067085;28;20300;-72
2022/08/30 02:24:35;;;;;;;;;;;23.60;99.90;;;;;;5066747;28;19917;-71
2022/08/30 02:27:01;;;;;;;;;;;23.50;99.90;;;;;;5064357;28;20059;-72
2022/08/30 02:29:27;;;;;;;;;;;23.40;99.90;;;;;;5075242;28;19908;-72
2022/08/30 02:31:53;;;;;;;;;;;23.40;99.90;;;;;;5065560;28;19986;-72
2022/08/30 02:34:18;;;;;;;;;;;23.40;99.90;;;;;;5065506;28;20453;-72
2022/08/30 02:36:44;;;;;;;;;;;23.30;99.90;;;;;;5065100;28;19958;-72
2022/08/30 02:39:11;;;;;;;;;;;23.10;99.90;;;;;;5063495;28;19916;-72
2022/08/30 02:41:37;;;;;;;;;;;23.00;99.90;;;;;;5064322;28;19915;-72
2022/08/30 02:44:04;;;;;;;;;;;22.90;99.90;;;;;;5063222;28;19931;-72
2022/08/30 02:46:29;;;;;;;;;;;23.00;99.90;;;;;;5065623;28;19963;-70
2022/08/30 02:48:55;;;;;;;;;;;23.10;99.90;;;;;;5066430;28;19940;-72
2022/08/30 02:51:20;;;;;;;;;;;23.10;99.90;;;;;;5071287;28;19943;-70
2022/08/30 02:53:46;;;;;;;;;;;23.20;99.90;;;;;;5065255;28;19915;-71
2022/08/30 02:56:12;;;;;;;;;;;23.40;99.90;;;;;;5065623;28;19969;-72
2022/08/30 02:58:41;;;;;;;;;;;23.50;99.90;;;;;;5064192;28;19915;-72
2022/08/30 03:01:07;;;;;;;;;;;23.70;99.90;;;;;;5064431;28;19916;-71
2022/08/30 03:03:32;;;;;;;;;;;23.70;99.90;;;;;;5063877;28;20392;-71
2022/08/30 03:06:09;;;;;;;;;;;23.70;99.90;;;;;;5063932;28;19912;-71
2022/08/30 03:08:35;;;;;;;;;;;23.70;99.90;;;;;;5063541;28;19920;-71
2022/08/30 03:11:01;;;;;;;;;;;23.70;99.90;;;;;;5064437;28;19908;-71
2022/08/30 03:13:27;;;;;;;;;;;23.90;99.90;;;;;;5063521;28;19908;-71
2022/08/30 03:15:53;;;;;;;;;;;24.00;99.90;;;;;;5045944;28;19981;-72
2022/08/30 03:18:19;;;;;;;;;;;24.10;99.90;;;;;;5064165;28;19909;-71
2022/08/30 03:20:45;;;;;;;;;;;24.20;99.90;;;;;;5064518;28;20178;-73
2022/08/30 03:23:11;;;;;;;;;;;24.00;99.90;;;;;;5064510;28;19912;-71
2022/08/30 03:25:38;;;;;;;;;;;24.00;99.90;;;;;;5064497;28;19916;-70
2022/08/30 03:28:04;;;;;;;;;;;24.00;99.90;;;;;;5063203;28;19931;-71
2022/08/30 03:30:30;;;;;;;;;;;24.10;99.90;;;;;;5065032;28;20421;-71
2022/08/30 03:32:55;;;;;;;;;;;24.00;99.90;;;;;;5062922;28;19912;-71
2022/08/30 03:35:21;;;;;;;;;;;23.90;99.90;;;;;;5064110;28;19912;-71
2022/08/30 03:37:48;;;;;;;;;;;23.90;99.90;;;;;;5063851;28;20038;-72
2022/08/30 03:40:15;;;;;;;;;;;23.90;99.90;;;;;;5064511;28;20030;-72
2022/08/30 03:42:41;;;;;;;;;;;24.00;99.90;;;;;;5063951;28;19999;-71
2022/08/30 03:45:08;;;;;;;;;;;24.00;99.90;;;;;;5064147;28;20007;-72
2022/08/30 03:47:36;;;;;;;;;;;24.00;99.90;;;;;;5062598;28;20642;-71
2022/08/30 03:50:02;;;;;;;;;;;23.80;99.90;;;;;;5065888;28;20389;-72
2022/08/30 03:52:28;;;;;;;;;;;23.80;99.90;;;;;;5062781;28;20115;-72
2022/08/30 03:54:54;;;;;;;;;;;23.80;99.90;;;;;;5062685;28;19908;-71
2022/08/30 03:57:19;;;;;;;;;;;23.80;99.90;;;;;;5063215;28;19938;-71
2022/08/30 03:59:45;;;;;;;;;;;23.80;99.90;;;;;;5062045;28;19912;-72
2022/08/30 04:02:10;;;;;;;;;;;23.80;99.90;;;;;;5064117;28;20107;-71
2022/08/30 04:04:36;;;;;;;;;;;23.80;99.90;;;;;;5064354;28;20297;-72
2022/08/30 04:07:02;;;;;;;;;;;23.90;99.90;;;;;;5064957;28;19912;-71
2022/08/30 04:09:27;;;;;;;;;;;23.90;99.90;;;;;;5063010;28;20440;-72
2022/08/30 04:11:53;;;;;;;;;;;23.90;99.90;;;;;;5079645;28;19916;-72
2022/08/30 04:14:19;;;;;;;;;;;23.90;99.90;;;;;;5066073;28;19904;-72
2022/08/30 04:16:44;;;;;;;;;;;24.00;99.90;;;;;;5064157;28;19908;-72
2022/08/30 04:19:10;;;;;;;;;;;23.90;99.90;;;;;;5046274;28;19916;-72
2022/08/30 04:21:36;;;;;;;;;;;23.80;99.90;;;;;;5064629;28;19912;-73
2022/08/30 04:24:02;;;;;;;;;;;23.90;99.90;;;;;;5048431;28;19912;-73
2022/08/30 04:26:27;;;;;;;;;;;23.80;99.90;;;;;;5064155;28;20436;-72
2022/08/30 04:28:54;;;;;;;;;;;23.70;99.90;;;;;;5062927;28;19908;-73
2022/08/30 04:31:20;;;;;;;;;;;23.80;99.90;;;;;;5062913;28;19920;-72
2022/08/30 04:33:45;;;;;;;;;;;23.80;99.90;;;;;;5064615;28;19912;-74
2022/08/30 04:36:12;;;;;;;;;;;23.90;99.90;;;;;;5065100;28;20023;-72
2022/08/30 04:38:38;;;;;;;;;;;23.90;99.90;;;;;;5040350;28;19935;-72
2022/08/30 04:41:11;;;;;;;;;;;23.90;99.90;;;;;;5062836;28;19916;-72
2022/08/30 04:43:38;;;;;;;;;;;23.80;99.90;;;;;;5063356;28;19916;-71
2022/08/30 04:46:07;;;;;;;;;;;23.90;99.90;;;;;;5063453;28;19928;-73
2022/08/30 04:48:34;;;;;;;;;;;23.90;99.90;;;;;;5064624;28;19931;-71
2022/08/30 04:51:01;;;;;;;;;;;23.90;99.90;;;;;;5063882;28;20344;-71
2022/08/30 04:53:27;;;;;;;;;;;23.90;99.90;;;;;;5066895;28;19916;-72
2022/08/30 04:55:52;;;;;;;;;;;24.00;99.90;;;;;;5069452;28;19908;-74
2022/08/30 04:58:18;;;;;;;;;;;24.00;99.90;;;;;;5066508;28;19908;-71
2022/08/30 05:00:44;;;;;;;;;;;24.00;99.90;;;;;;5074265;28;20356;-72
2022/08/30 05:03:09;;;;;;;;;;;24.00;99.90;;;;;;5069076;28;19934;-73
2022/08/30 05:05:38;;;;;;;;;;;24.00;99.90;;;;;;5076725;28;19913;-72
2022/08/30 05:08:04;;;;;;;;;;;24.00;99.90;;;;;;5069251;28;20309;-71
2022/08/30 05:10:30;;;;;;;;;;;24.00;99.90;;;;;;5068365;28;19912;-72
2022/08/30 05:12:56;;;;;;;;;;;24.00;99.90;;;;;;5050374;28;20336;-72
2022/08/30 05:15:22;;;;;;;;;;;23.90;99.90;;;;;;5067920;28;21545;-72
2022/08/30 05:17:48;;;;;;;;;;;23.80;99.90;;;;;;5066679;28;19921;-72
2022/08/30 05:20:14;;;;;;;;;;;23.90;99.90;;;;;;5066103;28;20260;-74
2022/08/30 05:22:40;;;;;;;;;;;24.00;99.90;;;;;;5066659;28;19908;-72
2022/08/30 05:25:06;;;;;;;;;;;24.10;99.90;;;;;;5049549;28;19917;-72
2022/08/30 05:27:32;;;;;;;;;;;24.10;99.90;;;;;;5066752;28;19912;-72
2022/08/30 05:29:57;;;;;;;;;;;24.20;99.90;;;;;;5064181;28;20374;-72
2022/08/30 05:32:23;;;;;;;;;;;24.20;99.90;;;;;;5062673;28;20148;-71
2022/08/30 05:34:52;;;;;;;;;;;24.20;99.90;;;;;;5074212;28;20255;-72
2022/08/30 05:37:17;;;;;;;;;;;24.20;99.90;;;;;;5074117;28;19915;-71
2022/08/30 05:39:43;;;;;;;;;;;24.20;99.90;;;;;;5073621;28;19957;-71
2022/08/30 05:42:08;;;;;;;;;;;24.20;99.90;;;;;;5072798;28;19916;-72
2022/08/30 05:44:34;;;;;;;;;;;24.20;99.90;;;;;;5073874;28;20443;-72
2022/08/30 05:47:00;;;;;;;;;;;24.30;99.90;;;;;;5069717;28;19926;-71
2022/08/30 05:49:25;;;;;;;;;;;24.40;99.90;;;;;;5071446;28;19934;-71
2022/08/30 05:51:51;;;;;;;;;;;24.50;99.90;;;;;;5074198;28;19931;-73
2022/08/30 05:54:17;;;;;;;;;;;24.60;99.90;;;;;;5072440;28;19908;-71
2022/08/30 05:56:44;;;;;;;;;;;24.60;99.90;;;;;;5074404;28;19991;-70
2022/08/30 05:59:10;;;;;;;;;;;24.60;99.90;;;;;;5070378;28;20286;-70
2022/08/30 06:01:37;;;;;;;;;;;24.60;99.90;;;;;;5073190;28;19916;-71
2022/08/30 06:04:03;;;;;;;;;;;24.70;99.90;;;;;;5055572;28;19977;-71
2022/08/30 06:06:30;;;;;;;;;;;24.70;99.90;;;;;;5074144;28;19912;-72
2022/08/30 06:08:55;;;;;;;;;;;24.80;99.90;;;;;;5057258;28;19909;-71
2022/08/30 06:11:24;;;;;;;;;;;24.90;99.90;;;;;;5074196;28;19911;-71
2022/08/30 06:13:51;;;;;;;;;;;24.90;99.90;;;;;;5073240;28;20006;-73
2022/08/30 06:16:18;;;;;;;;;;;24.90;99.90;;;;;;5073126;28;19908;-71
2022/08/30 06:18:43;;;;;;;;;;;25.00;99.90;;;;;;5072473;28;20302;-71
2022/08/30 06:21:19;;;;;;;;;;;25.00;99.90;;;;;;5074710;28;19912;-72
2022/08/30 06:23:45;;;;;;;;;;;25.00;99.90;;;;;;5074890;28;19912;-71
2022/08/30 06:26:11;;;;;;;;;;;25.20;99.90;;;;;;5060969;28;19927;-71
2022/08/30 06:28:36;;;;;;;;;;;25.30;99.90;;;;;;5081664;28;19908;-72
2022/08/30 06:31:09;;;;;;;;;;;25.40;99.90;;;;;;5078650;28;19912;-72
2022/08/30 06:33:35;;;;;;;;;;;25.40;99.90;;;;;;5075295;28;19908;-71
2022/08/30 06:36:04;;;;;;;;;;;25.50;99.90;;;;;;5077310;28;19935;-71
2022/08/30 06:38:30;;;;;;;;;;;25.60;99.90;;;;;;5059160;28;19904;-71
2022/08/30 06:40:55;;;;;;;;;;;25.70;99.90;;;;;;5075436;28;19915;-71
2022/08/30 06:43:21;;;;;;;;;;;25.70;99.90;;;;;;5075385;28;19983;-71
2022/08/30 06:45:47;;;;;;;;;;;25.70;99.90;;;;;;5074244;28;20470;-71
2022/08/30 06:48:12;;;;;;;;;;;25.70;99.90;;;;;;5074212;28;20289;-71
2022/08/30 06:50:40;;;;;;;;;;;25.80;99.90;;;;;;5071800;28;20326;-71
2022/08/30 06:53:06;;;;;;;;;;;25.90;99.90;;;;;;5073221;28;20406;-71
2022/08/30 06:55:32;;;;;;;;;;;25.90;99.90;;;;;;5072493;28;20077;-71
2022/08/30 06:58:02;;;;;;;;;;;26.00;99.90;;;;;;5082155;28;20293;-72
2022/08/30 07:00:28;;;;;;;;;;;26.10;99.90;;;;;;5073344;28;19935;-71
2022/08/30 07:02:53;;;;;;;;;;;26.20;99.90;;;;;;5071528;28;19959;-71
2022/08/30 07:05:22;;;;;;;;;;;26.30;99.90;;;;;;5073052;28;19928;-71
2022/08/30 07:07:48;;;;;;;;;;;26.40;99.90;;;;;;5068026;28;19947;-71
2022/08/30 07:10:14;;;;;;;;;;;26.40;99.90;;;;;;5056885;28;20448;-72
2022/08/30 07:12:40;;;;;;;;;;;26.50;99.90;;;;;;5071690;28;19943;-71
2022/08/30 07:15:06;;;;;;;;;;;26.40;99.90;;;;;;5074130;28;19918;-71
2022/08/30 07:20:17;;;;;;;;;;;26.50;99.90;;;;;;5070906;28;19999;-72
2022/08/30 07:22:43;;;;;;;;;;;26.50;99.90;;;;;;5082036;28;20045;-72
2022/08/30 07:25:08;;;;;;;;;;;26.50;99.90;;;;;;5077291;28;21339;-71
2022/08/30 07:27:34;;;;;;;;;;;26.60;99.90;;;;;;5069558;28;19916;-72
2022/08/30 07:30:01;;;;;;;;;;;26.70;99.90;;;;;;5068820;28;19908;-72
2022/08/30 07:32:27;;;;;;;;;;;26.70;99.90;;;;;;5070543;28;19920;-72
2022/08/30 07:34:52;;;;;;;;;;;26.70;99.90;;;;;;5074174;28;19908;-72
2022/08/30 07:37:18;;;;;;;;;;;26.80;99.90;;;;;;5057562;28;19931;-73
2022/08/30 07:39:44;;;;;;;;;;;26.90;99.90;;;;;;5066392;28;19918;-72
2022/08/30 07:42:10;;;;;;;;;;;27.10;99.90;;;;;;5064041;28;19908;-72
2022/08/30 07:44:36;;;;;;;;;;;27.10;99.90;;;;;;5064252;28;19963;-73
2022/08/30 07:47:01;;;;;;;;;;;27.20;99.90;;;;;;5067899;28;19919;-72
2022/08/30 07:49:27;;;;;;;;;;;27.30;99.90;;;;;;5070124;28;19920;-73
2022/08/30 07:51:52;;;;;;;;;;;27.30;99.90;;;;;;5050885;28;19951;-67
2022/08/30 07:54:18;;;;;;;;;;;27.20;99.90;;;;;;5078957;28;19986;-67
2022/08/30 07:56:44;;;;;;;;;;;27.30;99.90;;;;;;5068056;28;19909;-68
2022/08/30 07:59:09;;;;;;;;;;;27.20;99.90;;;;;;5061478;28;20395;-68
2022/08/30 08:01:35;;;;;;;;;;;27.20;99.90;;;;;;5071332;28;20151;-67
2022/08/30 08:04:00;;;;;;;;;;;27.20;99.90;;;;;;5070571;28;19904;-68
2022/08/30 08:06:26;;;;;;;;;;;27.20;99.90;;;;;;5083236;28;19908;-68
2022/08/30 08:08:52;;;;;;;;;;;27.30;99.90;;;;;;5066004;28;19962;-67
2022/08/30 08:11:20;;;;;;;;;;;27.30;99.90;;;;;;5076139;28;20431;-68
2022/08/30 08:13:46;;;;;;;;;;;27.30;99.90;;;;;;5081779;28;20367;-67
2022/08/30 08:16:12;;;;;;;;;;;27.50;99.90;;;;;;5068031;28;20306;-67
2022/08/30 08:18:38;;;;;;;;;;;27.70;99.90;;;;;;5070507;28;19928;-67
2022/08/30 08:21:04;;;;;;;;;;;27.70;99.90;;;;;;5069053;28;19997;-67
2022/08/30 08:23:29;;;;;;;;;;;27.80;99.90;;;;;;5071065;28;20304;-68
2022/08/30 08:25:55;;;;;;;;;;;27.90;99.90;;;;;;5067185;28;20003;-68
2022/08/30 08:28:21;;;;;;;;;;;27.90;99.90;;;;;;5069139;28;19966;-67
2022/08/30 08:30:48;;;;;;;;;;;27.80;99.90;;;;;;5071301;28;20358;-68
2022/08/30 08:33:14;;;;;;;;;;;27.90;99.90;;;;;;5069581;28;19908;-68
2022/08/30 08:35:40;;;;;;;;;;;27.90;99.90;;;;;;5070625;28;19914;-68
2022/08/30 08:38:06;;;;;;;;;;;28.00;99.90;;;;;;5067008;28;19912;-67
2022/08/30 08:40:37;;;;;;;;;;;28.20;99.90;;;;;;5070323;28;20355;-68
2022/08/30 08:43:13;;;;;;;;;;;28.40;99.90;;;;;;5075759;28;19911;-67
2022/08/30 08:46:02;;;;;;;;;;;28.60;99.90;;;;;;5063414;28;19996;-67
2022/08/30 08:48:30;;;;;;;;;;;28.70;99.90;;;;;;5078613;28;20336;-67
2022/08/30 08:53:59;;;;;;;;;;;28.60;99.90;;;;;;5001542;28;19999;-67
2022/08/30 08:56:25;;;;;;;;;;;28.60;99.90;;;;;;5068935;28;20039;-67
2022/08/30 08:58:52;;;;;;;;;;;28.70;99.90;;;;;;5067209;28;19923;-67
2022/08/30 09:01:20;;;;;;;;;;;28.90;99.90;;;;;;5072573;28;20297;-67
2022/08/30 09:03:46;;;;;;;;;;;28.90;99.90;;;;;;5066922;28;20391;-68
2022/08/30 09:06:31;;;;;;;;;;;28.80;99.90;;;;;;5067517;28;20299;-66
2022/08/30 09:08:57;;;;;;;;;;;28.70;99.90;;;;;;5066905;28;20279;-67
2022/08/30 09:11:25;;;;;;;;;;;28.80;99.90;;;;;;5069870;28;19972;-68
2022/08/30 09:13:51;;;;;;;;;;;28.90;99.90;;;;;;5071697;28;19939;-67
2022/08/30 09:16:35;;;;;;;;;;;29.10;99.90;;;;;;5064012;28;19952;-67
2022/08/30 09:19:00;;;;;;;;;;;29.20;99.90;;;;;;5063849;28;19916;-67
2022/08/30 09:21:27;;;;;;;;;;;29.30;99.90;;;;;;5062389;28;19918;-68
2022/08/30 09:23:58;;;;;;;;;;;29.40;99.90;;;;;;5063989;28;20035;-67
2022/08/30 09:26:31;;;;;;;;;;;29.50;99.90;;;;;;5061408;28;19931;-67
2022/08/30 09:28:59;;;;;;;;;;;29.60;99.90;;;;;;5065484;28;19919;-69
2022/08/30 09:31:32;;;;;;;;;;;29.70;99.90;;;;;;5060834;28;19922;-67
2022/08/30 09:34:05;;;;;;;;;;;29.70;99.90;;;;;;5075775;28;20358;-67
2022/08/30 09:36:39;;;;;;;;;;;29.70;99.90;;;;;;5065616;28;19909;-67
2022/08/30 09:39:12;;;;;;;;;;;29.40;99.90;;;;;;5069395;28;20362;-67
2022/08/30 09:41:41;;;;;;;;;;;29.00;99.90;;;;;;5061977;28;19931;-67
2022/08/30 09:44:07;;;;;;;;;;;28.50;99.90;;;;;;5069509;28;20381;-67
2022/08/30 09:46:33;;;;;;;;;;;28.30;99.90;;;;;;5069254;28;19931;-67
2022/08/30 09:48:58;;;;;;;;;;;28.00;99.90;;;;;;5067245;28;19967;-68
2022/08/30 09:51:24;;;;;;;;;;;28.00;99.90;;;;;;5066971;28;19916;-68
2022/08/30 09:53:49;;;;;;;;;;;27.80;99.90;;;;;;5066834;28;20034;-67
2022/08/30 09:56:24;;;;;;;;;;;27.70;99.90;;;;;;5068182;28;20309;-67
2022/08/30 09:59:08;;;;;;;;;;;27.70;99.90;;;;;;5074816;28;19969;-67
2022/08/30 10:01:52;;;;;;;;;;;27.60;99.90;;;;;;5064850;28;19928;-68
2022/08/30 10:04:52;;;;;;;;;;;27.50;99.90;;;;;;5073898;28;20281;-67
2022/08/30 10:07:21;;;;;;;;;;;27.50;99.90;;;;;;5031187;28;19909;-67
2022/08/30 10:09:46;;;;;;;;;;;27.50;99.90;;;;;;5058024;28;20357;-68
2022/08/30 10:12:30;;;;;;;;;;;27.60;99.90;;;;;;5055243;28;19955;-67
2022/08/30 10:15:01;;;;;;;;;;;27.70;99.90;;;;;;5081178;28;19941;-66
2022/08/30 10:17:27;;;;;;;;;;;27.70;99.90;;;;;;5080274;28;19918;-67
2022/08/30 10:20:15;;;;;;;;;;;27.70;99.90;;;;;;5070883;28;19913;-67
2022/08/30 10:22:45;;;;;;;;;;;27.60;99.90;;;;;;5067816;28;20523;-68
2022/08/30 10:25:29;;;;;;;;;;;27.80;99.90;;;;;;5049706;28;20354;-68
2022/08/30 10:28:02;;;;;;;;;;;27.70;99.90;;;;;;5070497;28;19919;-67
2022/08/30 10:30:30;;;;;;;;;;;27.70;99.90;;;;;;5074165;28;19935;-66
2022/08/30 10:33:03;;;;;;;;;;;27.70;99.90;;;;;;5071349;28;19908;-67
2022/08/30 10:35:38;;;;;;;;;;;27.90;99.90;;;;;;5072832;28;19904;-66
2022/08/30 10:38:13;;;;;;;;;;;28.00;99.90;;;;;;5070359;28;19920;-67
2022/08/30 10:43:32;;;;;;;;;;;28.00;99.90;;;;;;5086165;28;19977;-68
2022/08/30 10:46:00;;;;;;;;;;;28.10;99.90;;;;;;5092454;28;19904;-67
2022/08/30 10:48:30;;;;;;;;;;;28.00;99.90;;;;;;5093361;28;19965;-67
2022/08/30 10:50:57;;;;;;;;;;;28.00;99.90;;;;;;5093511;28;19962;-67
2022/08/30 10:53:38;;;;;;;;;;;28.00;99.90;;;;;;5077004;28;19938;-67
2022/08/30 10:56:09;;;;;;;;;;;28.10;99.90;;;;;;5074097;28;19943;-67
2022/08/30 10:58:37;;;;;;;;;;;28.10;99.90;;;;;;5078957;28;19909;-67
2022/08/30 11:01:11;;;;;;;;;;;28.20;99.90;;;;;;5073006;28;19994;-67
2022/08/30 11:03:52;;;;;;;;;;;28.30;99.90;;;;;;5071310;28;20227;-67
2022/08/30 11:06:25;;;;;;;;;;;28.40;99.90;;;;;;5072991;28;19939;-68
2022/08/30 11:09:09;;;;;;;;;;;28.30;99.90;;;;;;5072116;28;19924;-68
2022/08/30 11:12:14;;;;;;;;;;;28.30;99.90;;;;;;5065192;28;19999;-68
2022/08/30 11:14:42;;;;;;;;;;;28.20;99.90;;;;;;4979246;28;19965;-68
2022/08/30 11:17:22;;;;;;;;;;;27.90;99.90;;;;;;4992946;28;20271;-67
2022/08/30 11:19:47;;;;;;;;;;;27.70;99.90;;;;;;5031340;28;19954;-67
2022/08/30 11:22:15;;;;;;;;;;;27.70;99.90;;;;;;5078027;28;19907;-67
2022/08/30 11:24:59;;;;;;;;;;;27.60;99.90;;;;;;5073141;28;19962;-67
2022/08/30 11:27:41;;;;;;;;;;;27.30;99.90;;;;;;5086884;28;19912;-67
2022/08/30 11:30:39;;;;;;;;;;;27.30;99.90;;;;;;5053099;28;19908;-67
2022/08/30 11:33:11;;;;;;;;;;;27.30;99.90;;;;;;5024333;28;19991;-67
2022/08/30 11:35:46;;;;;;;;;;;27.30;99.90;;;;;;5092415;28;19904;-68
2022/08/30 11:38:16;;;;;;;;;;;27.40;99.90;;;;;;5071296;28;19912;-68
2022/08/30 11:40:48;;;;;;;;;;;27.50;99.90;;;;;;5050303;28;19935;-68
2022/08/30 11:43:32;;;;;;;;;;;27.50;99.90;;;;;;5071329;28;19907;-68
2022/08/30 11:46:16;;;;;;;;;;;27.50;99.90;;;;;;5069136;28;19953;-68
2022/08/30 11:48:43;;;;;;;;;;;27.50;99.90;;;;;;5070590;28;20353;-68
2022/08/30 11:51:20;;;;;;;;;;;27.60;99.90;;;;;;5070320;28;19916;-68
2022/08/30 11:53:57;;;;;;;;;;;27.50;99.90;;;;;;5072166;28;19904;-67
2022/08/30 11:56:45;;;;;;;;;;;27.50;99.90;;;;;;5079972;28;19995;-68
2022/08/30 11:59:16;;;;;;;;;;;27.40;99.90;;;;;;5072528;28;20003;-68
2022/08/30 12:01:42;;;;;;;;;;;27.30;99.90;;;;;;5073352;28;19908;-68
2022/08/30 12:04:18;;;;;;;;;;;27.30;99.90;;;;;;5073644;28;20015;-68
2022/08/30 12:06:46;;;;;;;;;;;27.20;99.90;;;;;;5072907;28;20284;-68
2022/08/30 12:09:23;;;;;;;;;;;27.40;99.90;;;;;;5074229;28;19908;-68
2022/08/30 12:12:00;;;;;;;;;;;27.50;99.90;;;;;;5076172;28;20370;-67
2022/08/30 12:14:40;;;;;;;;;;;27.60;99.90;;;;;;5069060;28;19954;-68
2022/08/30 12:20:15;;;;;;;;;;;27.60;99.90;;;;;;5058097;28;20003;-69
2022/08/30 12:22:41;;;;;;;;;;;27.40;99.90;;;;;;5071190;28;20358;-68
2022/08/30 12:25:18;;;;;;;;;;;27.50;99.90;;;;;;5071619;28;19935;-67
2022/08/30 12:27:43;;;;;;;;;;;27.60;99.90;;;;;;5073518;28;20159;-68
2022/08/30 12:30:09;;;;;;;;;;;27.60;99.90;;;;;;5068934;28;19912;-67
2022/08/30 12:32:41;;;;;;;;;;;27.70;99.90;;;;;;5077327;28;19915;-68
2022/08/30 12:35:17;;;;;;;;;;;27.80;99.90;;;;;;5071442;28;20322;-68
2022/08/30 12:37:42;;;;;;;;;;;27.90;99.90;;;;;;5071760;28;19935;-67
2022/08/30 12:40:08;;;;;;;;;;;27.80;99.90;;;;;;5058632;28;20389;-68
2022/08/30 12:42:35;;;;;;;;;;;27.90;99.90;;;;;;5076964;28;19908;-68
2022/08/30 12:45:04;;;;;;;;;;;27.90;99.90;;;;;;5068024;28;19950;-67
2022/08/30 12:47:29;;;;;;;;;;;27.90;99.90;;;;;;5069715;28;19917;-67
2022/08/30 12:49:56;;;;;;;;;;;27.80;99.90;;;;;;5065459;28;20247;-68
2022/08/30 12:52:25;;;;;;;;;;;27.70;99.90;;;;;;5071289;28;19909;-67
2022/08/30 12:54:52;;;;;;;;;;;27.70;99.90;;;;;;5068019;28;19934;-66
2022/08/30 12:57:36;;;;;;;;;;;27.60;99.90;;;;;;5074558;28;20306;-68
2022/08/30 13:00:03;;;;;;;;;;;27.50;99.90;;;;;;5073632;28;19988;-66
2022/08/30 13:02:50;;;;;;;;;;;27.50;99.90;;;;;;5079267;28;19959;-67
2022/08/30 13:05:35;;;;;;;;;;;27.50;99.90;;;;;;5079534;28;20010;-66
2022/08/30 13:08:09;;;;;;;;;;;27.40;99.90;;;;;;5079306;28;20223;-67
2022/08/30 13:10:35;;;;;;;;;;;27.50;99.90;;;;;;5074228;28;19908;-67
2022/08/30 13:13:02;;;;;;;;;;;27.50;99.90;;;;;;5061701;28;19962;-68
2022/08/30 13:15:32;;;;;;;;;;;27.40;99.90;;;;;;5061820;28;19916;-67
2022/08/30 13:18:10;;;;;;;;;;;27.30;99.90;;;;;;5045387;28;19958;-67
2022/08/30 13:20:36;;;;;;;;;;;27.40;99.90;;;;;;5040002;28;19913;-68
2022/08/30 13:23:03;;;;;;;;;;;27.30;99.90;;;;;;5065902;28;19908;-66
2022/08/30 13:25:29;;;;;;;;;;;27.30;99.90;;;;;;5071487;28;19912;-67
2022/08/30 13:27:55;;;;;;;;;;;27.20;99.90;;;;;;5071082;28;20058;-69
2022/08/30 13:30:21;;;;;;;;;;;27.10;99.90;;;;;;5084365;28;19908;-67
2022/08/30 13:32:47;;;;;;;;;;;27.10;99.90;;;;;;5075679;28;20066;-67
2022/08/30 13:35:12;;;;;;;;;;;27.10;99.90;;;;;;5077111;28;19915;-68
2022/08/30 13:37:40;;;;;;;;;;;27.10;99.90;;;;;;5077257;28;20358;-67
2022/08/30 13:40:06;;;;;;;;;;;27.40;99.90;;;;;;5075905;28;19908;-68
2022/08/30 13:42:32;;;;;;;;;;;27.50;99.90;;;;;;5074863;28;19905;-67
2022/08/30 13:44:58;;;;;;;;;;;27.60;99.90;;;;;;5072652;28;20298;-68
2022/08/30 13:47:23;;;;;;;;;;;27.50;99.90;;;;;;5091730;28;19912;-69
2022/08/30 13:49:49;;;;;;;;;;;27.50;99.90;;;;;;5080717;28;19912;-67
2022/08/30 13:52:16;;;;;;;;;;;27.50;99.90;;;;;;5074439;28;19910;-68
2022/08/30 13:54:42;;;;;;;;;;;27.40;99.90;;;;;;5081226;28;19972;-66
2022/08/30 13:57:08;;;;;;;;;;;27.40;99.90;;;;;;5075080;28;19904;-67
2022/08/30 13:59:34;;;;;;;;;;;27.30;99.90;;;;;;5074420;28;20273;-66
2022/08/30 14:02:00;;;;;;;;;;;27.30;99.90;;;;;;5074210;28;19904;-67
2022/08/30 14:04:26;;;;;;;;;;;27.40;99.90;;;;;;5068991;28;19912;-68
2022/08/30 14:06:52;;;;;;;;;;;27.30;99.90;;;;;;5073443;28;20035;-67
2022/08/30 14:09:18;;;;;;;;;;;27.50;99.90;;;;;;5056240;28;19966;-68
2022/08/30 14:11:43;;;;;;;;;;;27.50;99.90;;;;;;5072326;28;20307;-67
2022/08/30 14:14:09;;;;;;;;;;;27.60;99.90;;;;;;5073864;28;19913;-67
2022/08/30 14:16:36;;;;;;;;;;;27.50;99.90;;;;;;5073778;28;20381;-66
2022/08/30 14:19:02;;;;;;;;;;;27.40;99.90;;;;;;5074508;28;19959;-68
2022/08/30 14:21:28;;;;;;;;;;;27.40;99.90;;;;;;5073673;28;20350;-67
2022/08/30 14:23:55;;;;;;;;;;;27.30;99.90;;;;;;5072026;28;19912;-67
2022/08/30 14:26:22;;;;;;;;;;;27.40;99.90;;;;;;5071470;28;19908;-67
2022/08/30 14:28:48;;;;;;;;;;;27.40;99.90;;;;;;5072868;28;19916;-68
2022/08/30 14:31:15;;;;;;;;;;;27.30;99.90;;;;;;5079857;28;20313;-68
2022/08/30 14:33:40;;;;;;;;;;;27.40;99.90;;;;;;5070633;28;19985;-68
2022/08/30 14:36:06;;;;;;;;;;;27.40;99.90;;;;;;5070861;28;20361;-68